Time;durP1;ratioP1;P1;durP2;ratioP2;P2;SDS_P1;SDS_P2;PMS_P1;PMS_P2;Temp;Humidity;BMP_temperature;BMP_pressure;BME280_temperature;BME280_humidity;BME280_pressure;Samples;Min_cycle;Max_cycle;Signal;HPM_P1;HPM_P2
2021/04/04 00:00:20;;;;;;;11.23;7.50;;;;;;;;;;5040957;28;20028;-93
2021/04/04 00:02:46;;;;;;;12.95;7.15;;;;;;;;;;5058348;28;20040;-92
2021/04/04 00:05:13;;;;;;;11.45;7.07;;;;;;;;;;5057607;28;20423;-92
2021/04/04 00:07:42;;;;;;;13.75;8.57;;;;;;;;;;5058705;28;20104;-92
2021/04/04 00:10:10;;;;;;;12.50;7.88;;;;;;;;;;5057956;28;20037;-91
2021/04/04 00:12:36;;;;;;;13.00;7.95;;;;;;;;;;5058264;28;20033;-92
2021/04/04 00:15:04;;;;;;;12.18;7.53;;;;;;;;;;5057902;28;20025;-92
2021/04/04 00:17:30;;;;;;;13.55;8.15;;;;;;;;;;5058075;28;20100;-92
2021/04/04 00:19:56;;;;;;;27.05;12.27;;;;;;;;;;5058104;28;20021;-92
2021/04/04 00:22:23;;;;;;;26.20;11.25;;;;;;;;;;5057894;28;20024;-93
2021/04/04 00:24:49;;;;;;;23.50;10.32;;;;;;;;;;5057786;28;20411;-93
2021/04/04 00:27:15;;;;;;;18.25;9.30;;;;;;;;;;5057908;28;20075;-92
2021/04/04 00:29:41;;;;;;;18.95;9.05;;;;;;;;;;5057693;28;20112;-92
2021/04/04 00:32:07;;;;;;;18.10;8.73;;;;;;;;;;5057964;28;20111;-92
2021/04/04 00:34:33;;;;;;;13.20;7.70;;;;;;;;;;5057382;28;20028;-93
2021/04/04 00:36:59;;;;;;;11.63;6.25;;;;;;;;;;5056918;28;20043;-93
2021/04/04 00:39:28;;;;;;;8.52;5.60;;;;;;;;;;5057448;28;20067;-90
2021/04/04 00:45:26;;;;;;;9.57;6.20;;;;;;;;;;5039421;28;20067;-91
2021/04/04 00:47:52;;;;;;;9.63;6.20;;;;;;;;;;5056676;28;20033;-91
2021/04/04 00:50:20;;;;;;;8.73;5.60;;;;;;;;;;5057480;28;20134;-92
2021/04/04 00:52:46;;;;;;;12.05;6.20;;;;;;;;;;5057737;28;20056;-92
2021/04/04 00:55:13;;;;;;;10.63;6.93;;;;;;;;;;5056287;28;20025;-92
2021/04/04 00:57:58;;;;;;;11.20;7.18;;;;;;;;;;5056430;28;20025;-91
2021/04/04 01:00:25;;;;;;;13.52;8.00;;;;;;;;;;5057792;28;20021;-91
2021/04/04 01:02:54;;;;;;;16.92;9.05;;;;;;;;;;5057586;28;20218;-90
2021/04/04 01:05:25;;;;;;;11.45;7.10;;;;;;;;;;5057545;28;20070;-90
2021/04/04 01:07:55;;;;;;;16.07;8.13;;;;;;;;;;5056404;28;20029;-89
2021/04/04 01:10:21;;;;;;;13.80;7.43;;;;;;;;;;5057334;28;20037;-90
2021/04/04 01:15:54;;;;;;;12.23;7.47;;;;;;;;;;5057397;28;20035;-91
2021/04/04 01:18:20;;;;;;;15.27;8.38;;;;;;;;;;5057152;28;20131;-90
2021/04/04 01:20:51;;;;;;;15.30;8.80;;;;;;;;;;5057470;28;20131;-91
2021/04/04 01:23:17;;;;;;;12.73;7.93;;;;;;;;;;5057071;28;20108;-92
2021/04/04 01:26:02;;;;;;;11.52;7.25;;;;;;;;;;5056296;28;20068;-92
2021/04/04 01:28:30;;;;;;;13.23;7.20;;;;;;;;;;5057206;28;20322;-93
2021/04/04 01:30:56;;;;;;;10.93;7.10;;;;;;;;;;5057026;28;20028;-91
2021/04/04 01:33:24;;;;;;;14.73;8.30;;;;;;;;;;5057516;28;20098;-93
2021/04/04 01:35:52;;;;;;;13.38;8.07;;;;;;;;;;5056276;28;20025;-92
2021/04/04 01:38:22;;;;;;;9.85;6.18;;;;;;;;;;5056837;28;20021;-91
2021/04/04 01:43:53;;;;;;;11.90;7.00;;;;;;;;;;5057083;28;20114;-92
2021/04/04 01:46:21;;;;;;;12.60;7.07;;;;;;;;;;5055949;28;20044;-91
2021/04/04 01:48:47;;;;;;;13.70;7.68;;;;;;;;;;5059784;28;20068;-92
2021/04/04 01:51:14;;;;;;;10.55;6.53;;;;;;;;;;5060894;28;20376;-92
2021/04/04 01:53:41;;;;;;;10.75;7.47;;;;;;;;;;5060945;28;20021;-91
2021/04/04 02:05:18;;;;;;;14.02;8.82;;;;;;;;;;5060647;28;20078;-92
2021/04/04 02:07:46;;;;;;;12.18;7.63;;;;;;;;;;5060373;28;20039;-92
2021/04/04 02:10:13;;;;;;;11.55;8.23;;;;;;;;;;5060629;28;20031;-93
2021/04/04 02:12:40;;;;;;;13.15;8.60;;;;;;;;;;5060648;28;20032;-92
2021/04/04 02:15:07;;;;;;;13.40;8.55;;;;;;;;;;5060297;28;20025;-92
2021/04/04 02:17:34;;;;;;;16.42;8.43;;;;;;;;;;5059196;28;20017;-94
2021/04/04 02:20:00;;;;;;;13.27;8.70;;;;;;;;;;5060289;28;20053;-91
2021/04/04 02:22:26;;;;;;;13.70;8.23;;;;;;;;;;5060026;28;20021;-92
2021/04/04 02:24:52;;;;;;;17.15;9.45;;;;;;;;;;5060184;28;20021;-91
2021/04/04 02:27:18;;;;;;;13.38;8.20;;;;;;;;;;5059945;28;20031;-91
2021/04/04 02:29:45;;;;;;;13.75;8.40;;;;;;;;;;5059833;28;20437;-91
2021/04/04 02:32:13;;;;;;;13.93;8.02;;;;;;;;;;5059951;28;20330;-94
2021/04/04 02:34:43;;;;;;;14.50;8.43;;;;;;;;;;5059696;28;20071;-92
2021/04/04 02:37:12;;;;;;;15.63;8.32;;;;;;;;;;5059663;28;20025;-92
2021/04/04 02:39:53;;;;;;;12.80;7.90;;;;;;;;;;5059686;28;20067;-92
2021/04/04 02:45:34;;;;;;;13.55;8.70;;;;;;;;;;5055560;28;20444;-89
2021/04/04 02:48:03;;;;;;;15.25;8.55;;;;;;;;;;5059842;28;20028;-89
2021/04/04 02:50:30;;;;;;;17.75;10.48;;;;;;;;;;5059468;28;20021;-89
2021/04/04 02:53:00;;;;;;;17.80;11.27;;;;;;;;;;5059801;28;20303;-90
2021/04/04 02:55:29;;;;;;;15.13;9.50;;;;;;;;;;5059501;28;20021;-89
2021/04/04 03:01:00;;;;;;;15.30;8.35;;;;;;;;;;5059489;28;20093;-90
2021/04/04 03:03:28;;;;;;;15.93;8.90;;;;;;;;;;5059510;28;20017;-90
2021/04/04 03:05:56;;;;;;;13.13;9.25;;;;;;;;;;5059480;28;20074;-93
2021/04/04 03:08:22;;;;;;;13.55;8.90;;;;;;;;;;5058258;28;20335;-93
2021/04/04 03:10:50;;;;;;;14.38;9.05;;;;;;;;;;5059232;28;20442;-91
2021/04/04 03:13:53;;;;;;;14.82;9.13;;;;;;;;;;5059024;28;20029;-91
2021/04/04 03:16:20;;;;;;;16.05;9.85;;;;;;;;;;5058779;28;20104;-92
2021/04/04 03:18:46;;;;;;;13.07;9.10;;;;;;;;;;5059128;28;20021;-92
2021/04/04 03:21:14;;;;;;;16.02;9.57;;;;;;;;;;5057445;28;20090;-92
2021/04/04 03:23:41;;;;;;;16.42;10.05;;;;;;;;;;5059159;28;20021;-91
2021/04/04 03:26:07;;;;;;;16.20;10.07;;;;;;;;;;5058812;28;20361;-92
2021/04/04 03:28:34;;;;;;;16.35;9.82;;;;;;;;;;5059089;28;20030;-92
2021/04/04 03:31:01;;;;;;;14.35;9.60;;;;;;;;;;5058980;28;20312;-92
2021/04/04 03:33:27;;;;;;;14.07;9.40;;;;;;;;;;5058568;28;20021;-94
2021/04/04 03:35:53;;;;;;;13.57;9.57;;;;;;;;;;5058469;28;20056;-94
2021/04/04 03:38:20;;;;;;;15.68;9.15;;;;;;;;;;5057436;28;20057;-93
2021/04/04 03:40:47;;;;;;;13.57;9.50;;;;;;;;;;5058732;28;20346;-93
2021/04/04 03:43:33;;;;;;;14.15;9.07;;;;;;;;;;5058847;28;20427;-93
2021/04/04 03:46:00;;;;;;;14.50;9.35;;;;;;;;;;5058118;28;20423;-93
2021/04/04 03:48:28;;;;;;;13.68;9.73;;;;;;;;;;5058749;28;20029;-94
2021/04/04 03:50:54;;;;;;;13.45;9.45;;;;;;;;;;5058548;28;20052;-94
2021/04/04 03:53:21;;;;;;;17.02;10.05;;;;;;;;;;5058499;28;20033;-93
2021/04/04 03:55:52;;;;;;;13.18;9.07;;;;;;;;;;5058076;28;20025;-93
2021/04/04 03:58:23;;;;;;;13.27;8.48;;;;;;;;;;5058516;28;20028;-90
2021/04/04 04:00:51;;;;;;;13.90;8.27;;;;;;;;;;5058150;28;20064;-90
2021/04/04 04:03:17;;;;;;;11.82;7.97;;;;;;;;;;5058214;28;20028;-90
2021/04/04 04:05:43;;;;;;;12.43;7.75;;;;;;;;;;5058480;28;20029;-89
2021/04/04 04:08:10;;;;;;;11.82;7.20;;;;;;;;;;5058353;28;20339;-89
2021/04/04 04:10:38;;;;;;;10.40;7.55;;;;;;;;;;5058064;28;20043;-90
2021/04/04 04:13:04;;;;;;;11.55;7.45;;;;;;;;;;5058485;28;20032;-90
2021/04/04 04:15:31;;;;;;;11.48;7.15;;;;;;;;;;5057903;28;20052;-89
2021/04/04 04:17:58;;;;;;;10.45;7.07;;;;;;;;;;5056840;28;20021;-90
2021/04/04 04:20:25;;;;;;;17.17;7.65;;;;;;;;;;5058136;28;20346;-89
2021/04/04 04:22:51;;;;;;;9.15;6.45;;;;;;;;;;5057800;28;20407;-88
2021/04/04 04:25:17;;;;;;;11.55;6.65;;;;;;;;;;5058090;28;20021;-92
2021/04/04 04:28:03;;;;;;;12.13;7.47;;;;;;;;;;5057977;28;20094;-92
2021/04/04 04:30:29;;;;;;;13.00;6.35;;;;;;;;;;5056654;28;20117;-91
2021/04/04 04:32:57;;;;;;;10.15;5.93;;;;;;;;;;5056707;28;20020;-90
2021/04/04 04:35:24;;;;;;;12.15;5.40;;;;;;;;;;5057698;28;20029;-94
2021/04/04 04:37:50;;;;;;;6.93;5.13;;;;;;;;;;5059820;28;20044;-93
2021/04/04 04:40:17;;;;;;;8.85;4.80;;;;;;;;;;5060157;28;20311;-94
2021/04/04 04:42:46;;;;;;;8.70;4.88;;;;;;;;;;5058899;28;20411;-93
2021/04/04 04:45:16;;;;;;;7.07;4.53;;;;;;;;;;5058033;28;20037;-92
2021/04/04 04:47:42;;;;;;;7.03;4.60;;;;;;;;;;5058598;28;20041;-90
2021/04/04 04:50:09;;;;;;;6.82;4.10;;;;;;;;;;5057729;28;20029;-91
2021/04/04 04:52:35;;;;;;;5.85;4.53;;;;;;;;;;5057851;28;20323;-91
2021/04/04 04:55:04;;;;;;;10.43;4.55;;;;;;;;;;5057369;28;20457;-90
2021/04/04 05:00:34;;;;;;;6.75;4.40;;;;;;;;;;5057851;28;20028;-92
2021/04/04 05:03:01;;;;;;;5.60;4.32;;;;;;;;;;5057627;28;20025;-92
2021/04/04 05:05:27;;;;;;;5.50;4.00;;;;;;;;;;5057166;28;20025;-92
2021/04/04 05:07:54;;;;;;;5.57;4.47;;;;;;;;;;5057750;28;20031;-92
2021/04/04 05:10:21;;;;;;;5.15;4.00;;;;;;;;;;5056292;28;20037;-92
2021/04/04 05:12:51;;;;;;;9.70;4.57;;;;;;;;;;5057652;28;20090;-91
2021/04/04 05:15:19;;;;;;;6.72;3.70;;;;;;;;;;5057482;28;20025;-93
2021/04/04 05:17:45;;;;;;;8.98;4.35;;;;;;;;;;5056316;28;20025;-92
2021/04/04 05:20:11;;;;;;;6.55;4.30;;;;;;;;;;5057334;28;20067;-92
2021/04/04 05:22:38;;;;;;;7.88;4.50;;;;;;;;;;5059601;28;20099;-90
2021/04/04 05:25:05;;;;;;;18.10;9.13;;;;;;;;;;5060391;28;20025;-91
2021/04/04 05:33:39;;;;;;;12.07;7.57;;;;;;;;;;5061083;28;20032;-93
2021/04/04 05:36:06;;;;;;;20.60;11.23;;;;;;;;;;5060790;28;20026;-91
2021/04/04 05:38:32;;;;;;;40.25;19.95;;;;;;;;;;5061027;28;20028;-90
2021/04/04 05:41:01;;;;;;;92.28;44.60;;;;;;;;;;5060005;28;20017;-91
2021/04/04 05:43:51;;;;;;;48.00;26.38;;;;;;;;;;5060649;28;20017;-91
2021/04/04 05:46:40;;;;;;;30.38;16.80;;;;;;;;;;5060626;28;20045;-91
2021/04/04 05:49:17;;;;;;;15.52;9.80;;;;;;;;;;4999730;28;20421;-90
2021/04/04 05:51:51;;;;;;;16.05;9.57;;;;;;;;;;4983524;28;20038;-90
2021/04/04 05:54:22;;;;;;;21.17;11.07;;;;;;;;;;4999700;28;20034;-93
2021/04/04 05:57:25;;;;;;;15.50;9.57;;;;;;;;;;4999615;28;20038;-90
2021/04/04 06:00:17;;;;;;;11.82;8.30;;;;;;;;;;4999752;28;20050;-90
2021/04/04 06:02:43;;;;;;;14.98;7.00;;;;;;;;;;4996898;28;20058;-90
2021/04/04 06:05:38;;;;;;;15.07;7.68;;;;;;;;;;4999547;28;20503;-90
2021/04/04 06:08:23;;;;;;;11.88;6.82;;;;;;;;;;4941440;28;20106;-89
2021/04/04 06:11:01;;;;;;;13.30;7.68;;;;;;;;;;4941426;29;20058;-91
2021/04/04 06:13:36;;;;;;;14.27;7.32;;;;;;;;;;4941377;29;20036;-90
2021/04/04 06:16:20;;;;;;;10.63;6.95;;;;;;;;;;4941342;29;20027;-89
2021/04/04 06:19:04;;;;;;;10.63;7.07;;;;;;;;;;4941099;29;20522;-91
2021/04/04 06:21:34;;;;;;;11.90;7.07;;;;;;;;;;4925336;29;20055;-91
2021/04/04 06:24:06;;;;;;;35.75;19.42;;;;;;;;;;4925252;29;20047;-92
2021/04/04 06:26:41;;;;;;;50.58;28.88;;;;;;;;;;4995010;28;20109;-91
2021/04/04 06:29:45;;;;;;;13.38;8.40;;;;;;;;;;5018662;28;20152;-92
2021/04/04 06:32:15;;;;;;;17.27;9.45;;;;;;;;;;4960102;29;20045;-87
2021/04/04 06:34:47;;;;;;;25.35;11.23;;;;;;;;;;4960369;29;20043;-91
2021/04/04 06:37:32;;;;;;;23.65;13.60;;;;;;;;;;4960173;29;20412;-90
2021/04/04 06:40:06;;;;;;;39.72;18.10;;;;;;;;;;4960051;29;20063;-91
2021/04/04 06:42:44;;;;;;;34.78;15.70;;;;;;;;;;4960074;29;20031;-91
2021/04/04 06:45:13;;;;;;;74.97;30.48;;;;;;;;;;4990799;28;20058;-91
2021/04/04 06:47:58;;;;;;;46.63;20.48;;;;;;;;;;4998519;28;20046;-90
2021/04/04 06:50:24;;;;;;;27.77;13.73;;;;;;;;;;4998737;28;20122;-90
2021/04/04 06:52:51;;;;;;;36.40;18.17;;;;;;;;;;4982536;28;20041;-91
2021/04/04 06:55:25;;;;;;;23.02;12.60;;;;;;;;;;4998618;28;20401;-90
2021/04/04 06:57:54;;;;;;;19.05;11.02;;;;;;;;;;4998580;28;20500;-91
2021/04/04 07:00:23;;;;;;;16.60;10.00;;;;;;;;;;4998468;28;20041;-90
2021/04/04 07:02:56;;;;;;;33.63;13.88;;;;;;;;;;4998527;28;20026;-89
2021/04/04 07:05:24;;;;;;;19.80;10.88;;;;;;;;;;4993786;28;20319;-90
2021/04/04 07:07:50;;;;;;;35.38;18.00;;;;;;;;;;5059303;28;20029;-90
2021/04/04 07:10:28;;;;;;;20.20;11.63;;;;;;;;;;5059595;28;20033;-90
2021/04/04 07:13:09;;;;;;;30.77;18.65;;;;;;;;;;5059564;28;20021;-90
2021/04/04 07:15:54;;;;;;;26.98;16.00;;;;;;;;;;5059120;28;20037;-90
2021/04/04 07:18:40;;;;;;;21.25;13.88;;;;;;;;;;5058848;28;20470;-90
2021/04/04 07:21:17;;;;;;;12.77;9.43;;;;;;;;;;5059316;28;20032;-86
2021/04/04 07:24:00;;;;;;;14.75;9.98;;;;;;;;;;5058018;28;20059;-87
2021/04/04 07:26:36;;;;;;;11.88;8.10;;;;;;;;;;5058956;28;20044;-86
2021/04/04 07:29:12;;;;;;;17.55;11.80;;;;;;;;;;5058793;28;20146;-91
2021/04/04 07:31:52;;;;;;;19.08;13.23;;;;;;;;;;5058792;28;20025;-90
2021/04/04 07:34:20;;;;;;;16.42;8.77;;;;;;;;;;5058582;28;20426;-91
2021/04/04 07:36:46;;;;;;;10.85;7.18;;;;;;;;;;5058876;28;20067;-90
2021/04/04 07:39:18;;;;;;;12.10;7.63;;;;;;;;;;5058752;28;20033;-92
2021/04/04 07:41:48;;;;;;;10.65;7.55;;;;;;;;;;5058836;28;20029;-91
2021/04/04 07:44:18;;;;;;;9.77;6.32;;;;;;;;;;5056979;28;20068;-92
2021/04/04 07:46:58;;;;;;;13.85;8.18;;;;;;;;;;5057432;28;20094;-90
2021/04/04 07:49:31;;;;;;;14.05;7.93;;;;;;;;;;5058608;28;20029;-85
2021/04/04 07:51:58;;;;;;;16.88;9.65;;;;;;;;;;5058491;28;20025;-92
2021/04/04 07:54:35;;;;;;;13.00;6.97;;;;;;;;;;5058573;28;20040;-89
2021/04/04 07:57:13;;;;;;;9.73;6.55;;;;;;;;;;5058388;28;20025;-90
2021/04/04 07:59:41;;;;;;;12.82;7.40;;;;;;;;;;5058481;28;20024;-90
2021/04/04 08:02:10;;;;;;;14.30;9.57;;;;;;;;;;5058212;28;20021;-91
2021/04/04 08:04:48;;;;;;;9.77;6.88;;;;;;;;;;5058113;28;20032;-92
2021/04/04 08:07:25;;;;;;;9.32;6.70;;;;;;;;;;5057011;28;20025;-92
2021/04/04 08:10:03;;;;;;;12.05;7.07;;;;;;;;;;5057040;28;20036;-92
2021/04/04 08:12:50;;;;;;;10.13;7.43;;;;;;;;;;5058121;28;20091;-91
2021/04/04 08:15:22;;;;;;;10.10;7.53;;;;;;;;;;5057836;28;20091;-92
2021/04/04 08:17:48;;;;;;;10.05;7.22;;;;;;;;;;5057786;28;20052;-91
2021/04/04 08:20:21;;;;;;;8.77;6.43;;;;;;;;;;5058019;28;20029;-91
2021/04/04 08:22:50;;;;;;;18.50;9.50;;;;;;;;;;5058129;28;20029;-91
2021/04/04 08:25:17;;;;;;;11.10;7.20;;;;;;;;;;5056989;28;20032;-92
2021/04/04 08:27:47;;;;;;;12.25;7.22;;;;;;;;;;5056206;28;20045;-91
2021/04/04 08:30:19;;;;;;;12.63;7.20;;;;;;;;;;5058101;28;20032;-91
2021/04/04 08:32:49;;;;;;;8.88;6.60;;;;;;;;;;5057588;28;20024;-92
2021/04/04 08:35:19;;;;;;;9.70;6.10;;;;;;;;;;5057504;28;20032;-91
2021/04/04 08:37:47;;;;;;;9.10;6.78;;;;;;;;;;5056674;28;20029;-91
2021/04/04 08:40:14;;;;;;;11.82;7.90;;;;;;;;;;5057413;28;20037;-89
2021/04/04 08:42:42;;;;;;;9.15;6.85;;;;;;;;;;5057424;28;20021;-89
2021/04/04 08:45:11;;;;;;;9.80;6.78;;;;;;;;;;5057974;28;20017;-89
2021/04/04 08:47:38;;;;;;;10.63;7.03;;;;;;;;;;5056446;28;20049;-89
2021/04/04 08:50:09;;;;;;;11.48;7.80;;;;;;;;;;5056518;28;20037;-89
2021/04/04 08:52:40;;;;;;;8.52;6.18;;;;;;;;;;5056646;28;20117;-89
2021/04/04 08:55:06;;;;;;;10.98;6.78;;;;;;;;;;5057412;28;20037;-89
2021/04/04 08:57:39;;;;;;;11.05;7.43;;;;;;;;;;5059281;28;20028;-90
2021/04/04 09:00:09;;;;;;;14.70;9.65;;;;;;;;;;5061871;28;20033;-92
2021/04/04 09:02:53;;;;;;;7.72;5.70;;;;;;;;;;5061518;28;20033;-91
2021/04/04 09:05:25;;;;;;;8.60;5.95;;;;;;;;;;5061599;28;20032;-90
2021/04/04 09:07:52;;;;;;;8.83;5.87;;;;;;;;;;5061688;28;20113;-92
2021/04/04 09:10:19;;;;;;;11.15;6.72;;;;;;;;;;5061374;28;20071;-91
2021/04/04 09:12:45;;;;;;;11.20;7.00;;;;;;;;;;5060408;28;20036;-93
2021/04/04 09:15:12;;;;;;;12.55;7.10;;;;;;;;;;5061275;28;20021;-92
2021/04/04 09:17:39;;;;;;;7.97;5.95;;;;;;;;;;5060319;28;20029;-92
2021/04/04 09:20:07;;;;;;;11.68;7.35;;;;;;;;;;5061278;28;20036;-91
2021/04/04 09:22:36;;;;;;;12.57;6.85;;;;;;;;;;5061440;28;20048;-91
2021/04/04 09:25:12;;;;;;;11.23;6.57;;;;;;;;;;5061374;28;20048;-92
2021/04/04 09:30:42;;;;;;;9.85;7.13;;;;;;;;;;5061387;28;20024;-91
2021/04/04 09:33:12;;;;;;;17.48;7.45;;;;;;;;;;5061097;28;20025;-92
2021/04/04 09:35:39;;;;;;;11.60;7.68;;;;;;;;;;5061101;28;20302;-91
2021/04/04 09:38:07;;;;;;;13.25;7.63;;;;;;;;;;5060093;28;20025;-90
2021/04/04 09:40:33;;;;;;;13.25;8.10;;;;;;;;;;5060898;28;20403;-91
2021/04/04 09:43:09;;;;;;;11.65;7.93;;;;;;;;;;5060806;28;20465;-91
2021/04/04 09:45:36;;;;;;;13.45;8.27;;;;;;;;;;5059514;28;20029;-90
2021/04/04 09:48:18;;;;;;;10.65;7.20;;;;;;;;;;5060672;28;20045;-85
2021/04/04 09:50:44;;;;;;;13.17;7.90;;;;;;;;;;5060711;28;20371;-84
2021/04/04 09:53:10;;;;;;;10.40;7.63;;;;;;;;;;5059402;28;20290;-84
2021/04/04 09:55:38;;;;;;;11.43;6.72;;;;;;;;;;5059361;28;20029;-82
2021/04/04 09:58:05;;;;;;;13.23;8.80;;;;;;;;;;5060064;28;20025;-82
2021/04/04 10:00:37;;;;;;;14.40;10.10;;;;;;;;;;5059748;28;20104;-82
2021/04/04 10:03:13;;;;;;;12.27;7.03;;;;;;;;;;5060031;28;20045;-81
2021/04/04 10:05:44;;;;;;;13.35;8.45;;;;;;;;;;5058658;28;20029;-81
2021/04/04 10:08:17;;;;;;;15.60;8.80;;;;;;;;;;5059501;28;20048;-81
2021/04/04 10:10:47;;;;;;;13.88;8.98;;;;;;;;;;5059912;28;20060;-82
2021/04/04 10:13:13;;;;;;;11.13;7.03;;;;;;;;;;5058830;28;20370;-81
2021/04/04 10:15:43;;;;;;;15.07;8.73;;;;;;;;;;5059859;28;20028;-81
2021/04/04 10:18:10;;;;;;;13.32;7.28;;;;;;;;;;5059872;28;20055;-81
2021/04/04 10:20:36;;;;;;;18.10;9.32;;;;;;;;;;5058615;28;20025;-82
2021/04/04 10:23:04;;;;;;;18.55;9.90;;;;;;;;;;5058503;28;20039;-81
2021/04/04 10:25:30;;;;;;;20.83;9.98;;;;;;;;;;5058409;28;20056;-81
2021/04/04 10:27:57;;;;;;;19.48;9.55;;;;;;;;;;5059658;28;20354;-81
2021/04/04 10:30:27;;;;;;;19.80;10.40;;;;;;;;;;5059512;28;20446;-81
2021/04/04 10:32:53;;;;;;;12.65;8.02;;;;;;;;;;5058399;28;20041;-81
2021/04/04 10:35:28;;;;;;;18.63;10.23;;;;;;;;;;5059264;28;20333;-81
2021/04/04 10:38:30;;;;;;;17.75;10.15;;;;;;;;;;5059337;28;20021;-82
2021/04/04 10:40:57;;;;;;;10.63;7.32;;;;;;;;;;4998136;28;20038;-85
2021/04/04 10:43:35;;;;;;;8.40;6.07;;;;;;;;;;4998118;28;20050;-79
2021/04/04 10:46:07;;;;;;;10.00;7.22;;;;;;;;;;4981618;28;20156;-79
2021/04/04 10:48:35;;;;;;;13.10;8.13;;;;;;;;;;4997599;28;20038;-83
2021/04/04 10:51:01;;;;;;;14.38;8.07;;;;;;;;;;4998170;28;20467;-80
2021/04/04 10:53:28;;;;;;;26.23;11.98;;;;;;;;;;4997959;28;20452;-80
2021/04/04 10:55:54;;;;;;;13.50;8.07;;;;;;;;;;4981352;28;20117;-80
2021/04/04 10:58:24;;;;;;;16.60;8.52;;;;;;;;;;4981328;28;20030;-80
2021/04/04 11:00:50;;;;;;;13.82;7.72;;;;;;;;;;4997369;28;20073;-80
2021/04/04 11:03:16;;;;;;;11.10;7.13;;;;;;;;;;4997601;28;20030;-80
2021/04/04 11:05:42;;;;;;;11.65;8.10;;;;;;;;;;4997613;28;20314;-80
2021/04/04 11:08:09;;;;;;;12.15;8.05;;;;;;;;;;4997721;28;20511;-80
2021/04/04 11:10:35;;;;;;;19.08;11.27;;;;;;;;;;4997380;28;20476;-80
2021/04/04 11:13:02;;;;;;;11.65;7.97;;;;;;;;;;4997568;28;20029;-77
2021/04/04 11:15:40;;;;;;;12.77;8.35;;;;;;;;;;5043302;28;20036;-79
2021/04/04 11:18:09;;;;;;;22.10;11.57;;;;;;;;;;5058676;28;20041;-82
2021/04/04 11:20:36;;;;;;;16.55;9.50;;;;;;;;;;5057891;28;20049;-82
2021/04/04 11:23:02;;;;;;;15.10;8.45;;;;;;;;;;5059086;28;20017;-85
2021/04/04 11:25:29;;;;;;;18.40;9.18;;;;;;;;;;5057749;28;20028;-85
2021/04/04 11:28:14;;;;;;;21.35;11.00;;;;;;;;;;5052374;28;20300;-84
2021/04/04 11:30:41;;;;;;;18.40;10.15;;;;;;;;;;5048294;28;20029;-84
2021/04/04 11:33:16;;;;;;;11.77;7.63;;;;;;;;;;5045482;28;20021;-84
2021/04/04 11:36:00;;;;;;;12.40;7.80;;;;;;;;;;5047417;28;20037;-84
2021/04/04 11:38:28;;;;;;;10.95;8.75;;;;;;;;;;5041046;28;20029;-85
2021/04/04 11:41:13;;;;;;;20.63;11.85;;;;;;;;;;5039045;28;20033;-85
2021/04/04 11:43:39;;;;;;;11.93;8.85;;;;;;;;;;5038924;28;20304;-85
2021/04/04 11:46:05;;;;;;;15.95;10.23;;;;;;;;;;5038113;28;20045;-86
2021/04/04 11:48:32;;;;;;;17.85;11.00;;;;;;;;;;5038458;28;20064;-86
2021/04/04 11:51:10;;;;;;;16.42;10.10;;;;;;;;;;5037489;28;20037;-86
2021/04/04 11:53:43;;;;;;;9.98;7.35;;;;;;;;;;5038662;28;20120;-86
2021/04/04 11:56:10;;;;;;;21.35;11.73;;;;;;;;;;5038584;28;20343;-86
2021/04/04 11:58:54;;;;;;;16.27;10.38;;;;;;;;;;5038401;28;20032;-86
2021/04/04 12:01:21;;;;;;;8.15;6.18;;;;;;;;;;5038158;28;20018;-86
2021/04/04 12:03:47;;;;;;;11.65;6.75;;;;;;;;;;5038509;28;20317;-87
2021/04/04 12:06:14;;;;;;;10.63;6.80;;;;;;;;;;5038465;28;20049;-85
2021/04/04 12:08:40;;;;;;;19.30;9.65;;;;;;;;;;5038498;28;20030;-84
2021/04/04 12:11:06;;;;;;;12.82;7.47;;;;;;;;;;5038332;28;20040;-85
2021/04/04 12:13:32;;;;;;;15.85;8.57;;;;;;;;;;5038035;28;20132;-86
2021/04/04 12:15:59;;;;;;;13.77;7.45;;;;;;;;;;5037874;28;20017;-86
2021/04/04 12:18:25;;;;;;;13.43;7.40;;;;;;;;;;5037988;28;20104;-86
2021/04/04 12:20:51;;;;;;;13.55;8.30;;;;;;;;;;5038322;28;20029;-85
2021/04/04 12:23:18;;;;;;;12.77;8.40;;;;;;;;;;5037810;28;20029;-86
2021/04/04 12:25:44;;;;;;;12.88;7.60;;;;;;;;;;5037784;28;20033;-85
2021/04/04 12:28:29;;;;;;;15.07;8.13;;;;;;;;;;5036670;28;20025;-85
2021/04/04 12:30:57;;;;;;;10.07;7.88;;;;;;;;;;5036725;28;20037;-93
2021/04/04 12:33:25;;;;;;;9.45;6.28;;;;;;;;;;5040402;28;20076;-91
2021/04/04 12:35:52;;;;;;;12.20;7.65;;;;;;;;;;5045433;28;20029;-92
2021/04/04 12:38:38;;;;;;;10.68;6.72;;;;;;;;;;5037625;28;20026;-92
2021/04/04 12:41:04;;;;;;;9.85;6.38;;;;;;;;;;5037867;28;20022;-91
2021/04/04 12:43:49;;;;;;;10.43;6.47;;;;;;;;;;5037462;28;20028;-91
2021/04/04 12:46:15;;;;;;;9.02;6.50;;;;;;;;;;5037467;28;20053;-89
2021/04/04 12:48:41;;;;;;;10.32;6.32;;;;;;;;;;5037422;28;20060;-90
2021/04/04 12:51:07;;;;;;;10.15;6.38;;;;;;;;;;5037618;28;20030;-89
2021/04/04 12:53:40;;;;;;;6.97;5.57;;;;;;;;;;5036532;28;20473;-89
2021/04/04 12:56:06;;;;;;;10.55;6.57;;;;;;;;;;5037859;28;20043;-90
2021/04/04 12:58:34;;;;;;;11.82;7.20;;;;;;;;;;5037638;28;20024;-89
2021/04/04 13:01:01;;;;;;;13.25;8.02;;;;;;;;;;5036834;28;20022;-90
2021/04/04 13:03:33;;;;;;;16.58;8.50;;;;;;;;;;5046910;28;20021;-89
2021/04/04 13:06:00;;;;;;;8.45;6.38;;;;;;;;;;5055396;28;20032;-89
2021/04/04 13:08:32;;;;;;;11.23;7.22;;;;;;;;;;5036021;28;20034;-88
2021/04/04 13:11:03;;;;;;;9.38;6.10;;;;;;;;;;5037679;28;20099;-88
2021/04/04 13:13:30;;;;;;;7.53;5.10;;;;;;;;;;5046427;28;20031;-88
2021/04/04 13:15:58;;;;;;;6.95;5.05;;;;;;;;;;5057162;28;20033;-88
2021/04/04 13:18:28;;;;;;;7.00;5.10;;;;;;;;;;5056972;28;20071;-88
2021/04/04 13:20:55;;;;;;;8.75;5.70;;;;;;;;;;5057495;28;20062;-88
2021/04/04 13:23:21;;;;;;;8.73;5.85;;;;;;;;;;5057200;28;20022;-87
2021/04/04 13:25:47;;;;;;;9.00;5.35;;;;;;;;;;5057003;28;20520;-87
2021/04/04 13:31:18;;;;;;;7.72;5.30;;;;;;;;;;5056796;28;20055;-87
2021/04/04 13:33:48;;;;;;;9.30;5.80;;;;;;;;;;5037058;28;20026;-87
2021/04/04 13:36:14;;;;;;;9.90;6.85;;;;;;;;;;5035999;28;20358;-91
2021/04/04 13:38:41;;;;;;;10.65;7.05;;;;;;;;;;5037048;28;20063;-88
2021/04/04 13:41:08;;;;;;;11.38;6.65;;;;;;;;;;5037308;28;20049;-90
2021/04/04 13:43:47;;;;;;;25.58;15.43;;;;;;;;;;5038449;28;20041;-91
2021/04/04 13:46:27;;;;;;;90.20;47.20;;;;;;;;;;5041021;28;20041;-90
2021/04/04 13:48:55;;;;;;;22.52;12.70;;;;;;;;;;5041174;28;20064;-87
2021/04/04 13:51:21;;;;;;;45.20;25.98;;;;;;;;;;5040399;28;20022;-93
2021/04/04 13:53:47;;;;;;;35.78;22.08;;;;;;;;;;5040017;28;20160;-78
2021/04/04 13:56:15;;;;;;;22.65;14.95;;;;;;;;;;5039725;28;20582;-78
2021/04/04 13:58:46;;;;;;;12.95;8.55;;;;;;;;;;5039839;28;20029;-78
2021/04/04 14:16:34;;;;;;;13.93;7.22;;;;;;;;;;5055935;28;20053;-81
2021/04/04 14:19:00;;;;;;;9.77;7.10;;;;;;;;;;5059506;28;20021;-81
2021/04/04 14:21:26;;;;;;;12.15;7.65;;;;;;;;;;5059568;28;20017;-81
2021/04/04 14:23:53;;;;;;;13.73;7.95;;;;;;;;;;5059653;28;20021;-81
2021/04/04 14:26:19;;;;;;;9.57;7.18;;;;;;;;;;5059888;28;20124;-82
2021/04/04 14:28:45;;;;;;;32.47;22.38;;;;;;;;;;5059355;28;20036;-79
2021/04/04 14:31:11;;;;;;;34.85;21.95;;;;;;;;;;5059024;28;20410;-78
2021/04/04 14:33:37;;;;;;;22.70;15.93;;;;;;;;;;5059151;28;20060;-78
2021/04/04 14:36:06;;;;;;;23.50;14.75;;;;;;;;;;5058854;28;20360;-78
2021/04/04 14:38:33;;;;;;;19.52;12.73;;;;;;;;;;5058965;28;20112;-78
2021/04/04 14:40:59;;;;;;;31.15;17.40;;;;;;;;;;5058973;28;20028;-78
2021/04/04 14:45:52;;;;;;;18.75;11.90;;;;;;;;;;5039170;28;20144;-78
2021/04/04 14:48:18;;;;;;;16.40;9.82;;;;;;;;;;5039087;28;20053;-77
2021/04/04 14:50:44;;;;;;;12.35;8.63;;;;;;;;;;5039329;28;20045;-77
2021/04/04 14:53:11;;;;;;;13.10;8.98;;;;;;;;;;5038968;28;20386;-77
2021/04/04 14:55:42;;;;;;;14.00;8.70;;;;;;;;;;5037470;28;20029;-77
2021/04/04 14:58:08;;;;;;;17.98;10.25;;;;;;;;;;5037973;28;20036;-78
2021/04/04 15:00:34;;;;;;;21.00;11.57;;;;;;;;;;5038817;28;20029;-78
2021/04/04 15:03:00;;;;;;;30.15;14.60;;;;;;;;;;5037698;28;20068;-78
2021/04/04 15:05:26;;;;;;;24.95;12.85;;;;;;;;;;5037589;28;20467;-78
2021/04/04 15:07:53;;;;;;;19.27;10.95;;;;;;;;;;5038679;28;20435;-82
2021/04/04 15:10:19;;;;;;;16.15;9.45;;;;;;;;;;5020470;28;20037;-82
2021/04/04 15:12:45;;;;;;;14.77;10.57;;;;;;;;;;5037623;28;20457;-82
2021/04/04 15:15:12;;;;;;;16.05;10.73;;;;;;;;;;5038272;28;20057;-83
2021/04/04 15:17:39;;;;;;;16.05;8.93;;;;;;;;;;5037353;28;20018;-81
2021/04/04 15:20:06;;;;;;;17.08;10.15;;;;;;;;;;5045162;28;20029;-82
2021/04/04 15:22:32;;;;;;;18.88;12.18;;;;;;;;;;5050917;28;20025;-82
2021/04/04 15:24:58;;;;;;;13.43;9.43;;;;;;;;;;5037371;28;20037;-83
2021/04/04 15:27:24;;;;;;;11.77;8.55;;;;;;;;;;5038600;28;20029;-81
2021/04/04 15:29:50;;;;;;;14.07;8.50;;;;;;;;;;5038871;28;20025;-82
2021/04/04 15:32:16;;;;;;;17.00;9.13;;;;;;;;;;5038927;28;20033;-86
2021/04/04 15:34:42;;;;;;;29.77;14.43;;;;;;;;;;5037751;28;20028;-86
2021/04/04 15:37:08;;;;;;;19.52;10.55;;;;;;;;;;5038820;28;20383;-85
2021/04/04 15:39:34;;;;;;;21.05;11.25;;;;;;;;;;5038897;28;20021;-86
2021/04/04 15:42:00;;;;;;;21.55;13.10;;;;;;;;;;5037581;28;20053;-85